Time;durP1;ratioP1;P1;durP2;ratioP2;P2;SDS_P1;SDS_P2;PMS_P1;PMS_P2;Temp;Humidity;BMP_temperature;BMP_pressure;BME280_temperature;BME280_humidity;BME280_pressure;Samples;Min_cycle;Max_cycle;Signal;HPM_P1;HPM_P2
2023/08/02 00:00:38;;;;;;;6.50;3.80;;;;;;;22.00;51.30;93334.34;5065167;28;20226;-73
2023/08/02 00:03:04;;;;;;;6.30;3.50;;;;;;;21.93;51.33;93332.47;5064890;28;20100;-73
2023/08/02 00:05:30;;;;;;;5.93;3.60;;;;;;;21.75;52.07;93327.13;5064917;28;20074;-72
2023/08/02 00:07:56;;;;;;;6.90;4.30;;;;;;;21.79;52.99;93324.41;5064838;28;20074;-71
2023/08/02 00:10:21;;;;;;;6.22;3.63;;;;;;;21.87;53.55;93336.75;5064641;28;20021;-71
2023/08/02 00:12:50;;;;;;;7.63;3.65;;;;;;;21.85;52.91;93339.09;5064696;28;20032;-71
2023/08/02 00:15:15;;;;;;;8.82;3.28;;;;;;;21.86;53.03;93339.88;5064643;28;20063;-72
2023/08/02 00:17:41;;;;;;;5.57;3.67;;;;;;;21.92;52.54;93343.69;5064933;28;20033;-72
2023/08/02 00:20:07;;;;;;;8.68;3.50;;;;;;;21.90;52.36;93340.63;5064484;28;20321;-72
2023/08/02 00:22:32;;;;;;;7.28;3.60;;;;;;;21.88;52.49;93342.94;5064502;28;20092;-71
2023/08/02 00:24:58;;;;;;;5.65;3.25;;;;;;;21.84;53.03;93343.75;5064373;28;20028;-71
2023/08/02 00:27:23;;;;;;;10.27;3.60;;;;;;;;;;5064245;28;20104;-71
2023/08/02 00:29:49;;;;;;;8.95;4.97;;;;;;;21.74;53.91;93343.84;5064362;28;20032;-72
2023/08/02 00:32:15;;;;;;;8.45;4.03;;;;;;;21.73;53.83;93340.31;5064327;28;20021;-72
2023/08/02 00:34:40;;;;;;;6.63;4.20;;;;;;;21.76;54.34;93338.78;5064381;28;20031;-71
2023/08/02 00:37:06;;;;;;;8.95;3.85;;;;;;;21.79;53.97;93346.88;5064175;28;20028;-71
2023/08/02 00:39:31;;;;;;;7.25;4.22;;;;;;;21.67;54.07;93349.28;5064198;28;20052;-71
2023/08/02 00:41:56;;;;;;;9.70;3.90;;;;;;;21.61;53.92;93346.97;5064009;28;20025;-71
2023/08/02 00:44:22;;;;;;;8.27;3.72;;;;;;;21.74;54.90;93352.72;5064205;28;20021;-71
2023/08/02 00:46:47;;;;;;;11.50;4.10;;;;;;;21.73;53.81;93353.13;5062638;28;20028;-72
2023/08/02 00:49:13;;;;;;;7.80;3.45;;;;;;;21.70;53.75;93349.28;5064015;28;20041;-71
2023/08/02 00:51:38;;;;;;;6.13;3.30;;;;;;;21.63;54.33;93349.28;5064013;28;20039;-71
2023/08/02 00:54:05;;;;;;;10.95;4.07;;;;;;;21.47;54.35;93340.84;5063706;28;20095;-71
2023/08/02 00:56:31;;;;;;;9.50;3.60;;;;;;;21.44;54.62;93347.84;5063774;28;20024;-71
2023/08/02 00:58:56;;;;;;;5.78;3.15;;;;;;;21.49;54.54;93343.94;5063803;28;20227;-71
2023/08/02 01:01:22;;;;;;;5.47;3.33;;;;;;;21.41;54.98;93349.38;5063845;28;20093;-72
2023/08/02 01:03:48;;;;;;;6.32;3.90;;;;;;;21.32;55.87;93343.59;5063766;28;20334;-71
2023/08/02 01:06:26;;;;;;;6.05;3.63;;;;;;;21.35;55.89;93348.25;5063522;28;20025;-72
2023/08/02 01:08:59;;;;;;;8.55;4.30;;;;;;;21.39;56.44;93351.72;5063366;28;20025;-72
2023/08/02 01:11:31;;;;;;;8.10;4.32;;;;;;;21.32;56.79;93335.47;5063486;28;20300;-72
2023/08/02 01:13:58;;;;;;;9.10;4.03;;;;;;;21.33;56.55;93334.31;5063482;28;20025;-72
2023/08/02 01:16:25;;;;;;;5.47;3.70;;;;;;;21.30;56.81;93326.97;5063451;28;20043;-72
2023/08/02 01:18:50;;;;;;;7.13;4.03;;;;;;;21.31;56.95;93331.22;5063215;28;20029;-72
2023/08/02 01:21:16;;;;;;;7.07;3.88;;;;;;;21.35;56.89;93334.69;5063286;28;20024;-72
2023/08/02 01:23:43;;;;;;;5.78;3.25;;;;;;;21.28;57.46;93326.56;5063532;28;20016;-73
2023/08/02 01:26:10;;;;;;;5.30;3.88;;;;;;;21.15;56.89;93318.13;5063511;28;20029;-73
2023/08/02 01:28:38;;;;;;;6.47;4.18;;;;;;;21.21;56.75;93334.75;5063217;28;20063;-72
2023/08/02 01:31:16;;;;;;;5.43;3.60;;;;;;;21.06;56.37;93328.59;5062634;28;20147;-73
2023/08/02 01:33:48;;;;;;;6.30;3.95;;;;;;;20.95;56.77;93338.72;5061988;28;20025;-73
2023/08/02 01:36:14;;;;;;;7.03;4.00;;;;;;;20.96;56.59;93326.69;5061368;28;20033;-73
2023/08/02 01:38:39;;;;;;;5.88;4.18;;;;;;;21.03;56.19;93324.75;5062443;28;20027;-73
2023/08/02 01:41:05;;;;;;;7.03;3.67;;;;;;;21.00;55.55;93324.75;5061765;28;20028;-73
2023/08/02 01:43:30;;;;;;;5.78;3.92;;;;;;;20.96;56.36;93319.31;5062656;28;20028;-73
2023/08/02 01:45:56;;;;;;;6.85;3.75;;;;;;;21.04;57.35;93322.78;5062855;28;20055;-74
2023/08/02 01:48:22;;;;;;;7.80;3.95;;;;;;;20.96;57.17;93323.97;5062778;28;20040;-73
2023/08/02 01:50:48;;;;;;;7.57;4.13;;;;;;;20.86;57.43;93314.72;5061699;28;20103;-73
2023/08/02 01:53:13;;;;;;;6.15;4.00;;;;;;;20.87;57.91;93315.50;5063006;28;20031;-73
2023/08/02 01:55:38;;;;;;;5.95;4.03;;;;;;;20.81;58.55;93317.84;5062776;28;20028;-73
2023/08/02 01:58:04;;;;;;;7.00;4.50;;;;;;;20.75;58.40;93324.81;5062826;28;20048;-73
2023/08/02 02:00:29;;;;;;;6.47;3.67;;;;;;;20.79;58.42;93314.75;5062739;28;20025;-73
2023/08/02 02:02:57;;;;;;;6.60;3.97;;;;;;;20.72;58.79;93317.47;5061594;28;20031;-73
2023/08/02 02:05:23;;;;;;;5.32;3.83;;;;;;;20.72;58.49;93320.16;5062803;28;20017;-72
2023/08/02 02:07:48;;;;;;;5.88;4.05;;;;;;;20.74;58.42;93323.25;5062771;28;20254;-72
2023/08/02 02:10:14;;;;;;;5.80;4.25;;;;;;;20.69;57.95;93327.16;5062588;28;20032;-72
2023/08/02 02:12:39;;;;;;;9.15;4.10;;;;;;;20.62;57.89;93322.53;5062739;28;20222;-72
2023/08/02 02:15:05;;;;;;;5.88;4.10;;;;;;;20.55;57.99;93319.78;5062532;28;20024;-72
2023/08/02 02:17:31;;;;;;;6.68;4.47;;;;;;;20.57;58.86;93327.53;5062040;28;20223;-72
2023/08/02 02:19:56;;;;;;;5.75;4.25;;;;;;;20.55;58.95;93327.91;5062406;28;20092;-72
2023/08/02 02:22:22;;;;;;;9.05;4.38;;;;;;;20.52;58.96;93336.81;5062502;28;20017;-72
2023/08/02 02:24:47;;;;;;;18.83;4.85;;;;;;;20.59;59.07;93328.69;5062625;28;20017;-72
2023/08/02 02:27:12;;;;;;;12.07;4.70;;;;;;;20.56;58.55;93336.81;5062498;28;20041;-72
2023/08/02 02:29:38;;;;;;;7.35;4.05;;;;;;;20.55;58.98;93336.03;5062475;28;20024;-72
2023/08/02 02:32:04;;;;;;;4.97;3.97;;;;;;;20.52;59.19;93339.53;5062374;28;20025;-72
2023/08/02 02:34:29;;;;;;;6.40;4.32;;;;;;;20.46;59.42;93335.66;5062372;28;20062;-72
2023/08/02 02:36:55;;;;;;;9.02;4.60;;;;;;;20.52;59.30;93344.19;5062335;28;20313;-72
2023/08/02 02:39:20;;;;;;;9.82;4.82;;;;;;;20.51;59.15;93348.03;5062353;28;20021;-72
2023/08/02 02:41:45;;;;;;;11.02;4.88;;;;;;;20.48;59.27;93341.47;5062251;28;20059;-72
2023/08/02 02:44:11;;;;;;;7.07;3.60;;;;;;;20.52;59.75;93344.94;5062612;28;20012;-72
2023/08/02 02:46:36;;;;;;;11.75;4.75;;;;;;;20.47;59.64;93348.03;5062281;28;20021;-72
2023/08/02 02:49:02;;;;;;;9.05;4.93;;;;;;;20.42;60.08;93343.00;5062025;28;20051;-72
2023/08/02 02:51:27;;;;;;;9.23;4.88;;;;;;;20.45;59.59;93350.34;5062232;28;20228;-72
2023/08/02 02:53:52;;;;;;;12.75;4.57;;;;;;;20.50;59.52;93358.09;5062217;28;20028;-72
2023/08/02 02:56:18;;;;;;;6.90;4.68;;;;;;;20.42;59.66;93356.56;5062202;28;20248;-72
2023/08/02 02:58:43;;;;;;;7.18;4.18;;;;;;;20.40;60.13;93359.63;5062106;28;20016;-72
2023/08/02 03:01:09;;;;;;;14.15;5.03;;;;;;;20.47;59.97;93363.50;5062174;28;20254;-72
2023/08/02 03:03:34;;;;;;;7.00;4.82;;;;;;;20.45;59.05;93366.59;5062143;28;20144;-72
2023/08/02 03:06:01;;;;;;;11.38;4.40;;;;;;;20.37;59.04;93371.25;5062185;28;20016;-72
2023/08/02 03:08:26;;;;;;;6.43;4.47;;;;;;;20.37;59.09;93373.97;5062094;28;20035;-72
2023/08/02 03:10:52;;;;;;;7.53;4.45;;;;;;;20.40;59.76;93375.09;5062137;28;20036;-72
2023/08/02 03:13:17;;;;;;;8.73;4.55;;;;;;;20.36;59.51;93375.09;5060774;28;20043;-71
2023/08/02 03:15:42;;;;;;;6.55;4.43;;;;;;;20.22;59.95;93375.09;5062011;28;20021;-71
2023/08/02 03:18:08;;;;;;;11.15;4.93;;;;;;;20.16;60.30;93374.69;5062080;28;20728;-71
2023/08/02 03:20:33;;;;;;;8.27;4.72;;;;;;;20.21;60.20;93373.53;5061975;28;20029;-71
2023/08/02 03:22:59;;;;;;;7.35;4.57;;;;;;;20.14;60.80;93373.53;5061877;28;20084;-72
2023/08/02 03:25:24;;;;;;;10.82;4.53;;;;;;;20.12;61.02;93371.22;5061998;28;20017;-72
2023/08/02 03:27:49;;;;;;;16.48;5.30;;;;;;;20.23;61.30;93372.00;5061962;28;20067;-72
2023/08/02 03:30:15;;;;;;;9.70;5.03;;;;;;;20.23;61.24;93365.81;5062768;28;20312;-71
2023/08/02 03:32:40;;;;;;;8.93;5.20;;;;;;;20.20;61.47;93367.34;5065637;28;20086;-71
2023/08/02 03:35:06;;;;;;;15.10;5.28;;;;;;;20.25;61.66;93374.31;5065269;28;20090;-71
2023/08/02 03:37:32;;;;;;;15.25;5.18;;;;;;;20.33;61.73;93372.38;5065412;28;20040;-71
2023/08/02 03:39:57;;;;;;;7.55;5.18;;;;;;;20.33;61.62;93375.09;5064183;28;20095;-71
2023/08/02 03:42:23;;;;;;;17.20;5.28;;;;;;;20.23;61.53;93371.22;5065440;28;20073;-71
2023/08/02 03:44:48;;;;;;;7.72;4.95;;;;;;;20.18;61.42;93372.38;5065024;28;20220;-72
2023/08/02 03:47:13;;;;;;;9.73;5.00;;;;;;;20.22;61.71;93369.69;5065079;28;20219;-72
2023/08/02 03:49:40;;;;;;;10.38;6.05;;;;;;;20.21;61.26;93379.75;5065177;28;20045;-72
2023/08/02 03:52:05;;;;;;;7.55;4.93;;;;;;;20.14;61.23;93379.72;5065028;28;20043;-72
2023/08/02 03:54:31;;;;;;;9.93;4.68;;;;;;;20.16;61.24;93382.06;5065046;28;20024;-71
2023/08/02 03:56:56;;;;;;;13.40;5.05;;;;;;;20.23;61.21;93382.03;5064946;28;20024;-71
2023/08/02 03:59:22;;;;;;;9.88;4.80;;;;;;;20.29;60.91;93385.91;5064938;28;20023;-71
2023/08/02 04:01:47;;;;;;;9.35;4.93;;;;;;;20.29;60.96;93385.16;5064822;28;20024;-71
2023/08/02 04:04:13;;;;;;;8.73;4.53;;;;;;;20.25;61.23;93374.31;5064949;28;20373;-71
2023/08/02 04:06:38;;;;;;;9.55;4.93;;;;;;;20.37;62.28;93379.38;5065134;28;20088;-71
2023/08/02 04:09:04;;;;;;;10.32;4.90;;;;;;;20.39;61.37;93373.53;5064675;28;20020;-71
2023/08/02 04:11:31;;;;;;;9.18;4.72;;;;;;;20.41;61.35;93368.53;5064634;28;20044;-71
2023/08/02 04:13:56;;;;;;;7.05;4.68;;;;;;;20.48;61.74;93387.47;5064637;28;20219;-71
2023/08/02 04:16:21;;;;;;;7.75;5.40;;;;;;;20.52;61.38;93390.19;5064277;28;20017;-71
2023/08/02 04:18:47;;;;;;;9.52;5.38;;;;;;;20.46;61.30;93387.09;5064706;28;20013;-71
2023/08/02 04:21:17;;;;;;;11.57;5.20;;;;;;;20.55;62.31;93386.69;5064685;28;20035;-71
2023/08/02 04:23:43;;;;;;;9.40;5.32;;;;;;;20.54;61.97;93380.53;5064652;28;20031;-71
2023/08/02 04:26:09;;;;;;;8.35;5.40;;;;;;;20.61;62.54;93391.34;5064537;28;20021;-71
2023/08/02 04:28:35;;;;;;;10.23;5.10;;;;;;;20.65;61.22;93380.53;5064440;28;20052;-71
2023/08/02 04:31:00;;;;;;;18.38;5.93;;;;;;;20.63;61.62;93377.44;5064136;28;20032;-71
2023/08/02 04:33:26;;;;;;;13.23;6.57;;;;;;;20.63;62.53;93382.84;5064414;28;20203;-72
2023/08/02 04:35:52;;;;;;;15.27;5.53;;;;;;;20.67;62.65;93377.44;5064235;28;20128;-72
2023/08/02 04:38:17;;;;;;;9.75;5.05;;;;;;;20.72;61.91;93385.16;5064107;28;20078;-72
2023/08/02 04:40:42;;;;;;;13.48;5.28;;;;;;;20.74;62.04;93389.03;5063904;28;20025;-72
2023/08/02 04:43:08;;;;;;;9.73;5.40;;;;;;;20.80;61.05;93378.56;5064092;28;20017;-72
2023/08/02 04:45:33;;;;;;;10.82;5.35;;;;;;;20.87;60.97;93384.00;5063845;28;20211;-71
2023/08/02 04:47:59;;;;;;;10.48;5.78;;;;;;;21.03;61.71;93384.34;5063855;28;20239;-71
2023/08/02 04:50:24;;;;;;;7.22;5.20;;;;;;;21.10;61.33;93375.41;5064075;28;20067;-72
2023/08/02 04:52:49;;;;;;;14.70;6.30;;;;;;;21.15;61.08;93371.56;5064036;28;20191;-72
2023/08/02 04:55:15;;;;;;;8.82;5.40;;;;;;;21.29;61.62;93385.06;5063742;28;20089;-72
2023/08/02 04:57:40;;;;;;;20.08;6.90;;;;;;;21.28;61.49;93388.16;5063803;28;20215;-72
2023/08/02 05:00:06;;;;;;;10.25;5.40;;;;;;;21.32;60.75;93386.19;5063743;28;20021;-72
2023/08/02 05:02:36;;;;;;;11.95;6.22;;;;;;;21.39;60.56;93397.00;5063597;28;20371;-72
2023/08/02 05:05:02;;;;;;;15.20;6.93;;;;;;;21.36;60.47;93401.28;5063875;28;20012;-72
2023/08/02 05:07:31;;;;;;;10.95;6.32;;;;;;;21.37;60.45;93407.47;5063650;28;20033;-72
2023/08/02 05:09:57;;;;;;;18.33;6.35;;;;;;;21.46;60.00;93401.69;5063440;28;20066;-72
2023/08/02 05:12:23;;;;;;;13.45;6.28;;;;;;;21.52;59.68;93395.44;5063465;28;20032;-72
2023/08/02 05:14:48;;;;;;;16.55;6.68;;;;;;;21.60;60.68;93398.91;5063414;28;20324;-72
2023/08/02 05:17:14;;;;;;;13.23;6.13;;;;;;;21.63;60.53;93389.97;5063484;28;20100;-72
2023/08/02 05:19:39;;;;;;;14.30;6.20;;;;;;;21.72;59.54;93405.84;5063428;28;20016;-72
2023/08/02 05:22:05;;;;;;;10.80;6.40;;;;;;;21.69;59.39;93395.75;5063266;28;20323;-72
2023/08/02 05:24:30;;;;;;;15.82;6.93;;;;;;;21.64;58.86;93403.13;5063316;28;20021;-73
2023/08/02 05:26:55;;;;;;;20.20;7.13;;;;;;;21.72;59.40;93412.03;5062954;28;20020;-73
2023/08/02 05:29:21;;;;;;;10.15;6.93;;;;;;;21.76;59.17;93412.00;5062878;28;20214;-72
2023/08/02 05:31:46;;;;;;;11.75;6.40;;;;;;;21.83;58.62;93412.72;5062993;28;20023;-72
2023/08/02 05:34:12;;;;;;;15.57;6.93;;;;;;;21.92;59.59;93419.66;5062998;28;20082;-72
2023/08/02 05:36:37;;;;;;;21.88;7.25;;;;;;;21.91;60.00;93421.63;5063101;28;20028;-72
2023/08/02 05:39:03;;;;;;;11.00;6.45;;;;;;;21.99;60.75;93425.84;5062907;28;20267;-72
2023/08/02 05:41:28;;;;;;;16.55;6.78;;;;;;;22.01;60.61;93430.88;5062850;28;20016;-73
2023/08/02 05:43:53;;;;;;;12.60;7.75;;;;;;;22.05;60.59;93431.63;5062630;28;20180;-73
2023/08/02 05:46:19;;;;;;;16.90;7.82;;;;;;;22.11;59.45;93437.41;5061473;28;20279;-73
2023/08/02 05:48:44;;;;;;;14.98;7.55;;;;;;;22.14;59.57;93436.59;5062366;28;20044;-72
2023/08/02 05:51:10;;;;;;;19.67;8.35;;;;;;;22.15;58.51;93449.78;5063067;28;20054;-73
2023/08/02 05:53:35;;;;;;;20.67;7.97;;;;;;;22.07;58.26;93448.28;5062061;28;20111;-73
2023/08/02 05:56:01;;;;;;;15.90;7.50;;;;;;;21.94;57.43;93449.88;5062592;28;20095;-72
2023/08/02 05:58:26;;;;;;;26.33;7.80;;;;;;;21.99;57.43;93452.97;5062579;28;20371;-73
2023/08/02 06:00:52;;;;;;;14.27;7.55;;;;;;;22.08;58.39;93457.94;5062693;28;20099;-73
2023/08/02 06:03:17;;;;;;;13.45;8.27;;;;;;;22.07;57.58;93444.81;5062594;28;20033;-72
2023/08/02 06:05:43;;;;;;;16.75;7.95;;;;;;;22.07;58.11;93447.50;5063016;28;20012;-76
2023/08/02 06:08:08;;;;;;;22.05;9.52;;;;;;;22.15;58.49;93447.06;5061847;28;20066;-81
2023/08/02 06:10:34;;;;;;;16.17;9.23;;;;;;;22.26;57.61;93441.59;5062714;28;20028;-76
2023/08/02 06:12:59;;;;;;;11.82;8.40;;;;;;;22.38;57.19;93445.78;5059581;28;20343;-75
2023/08/02 06:15:25;;;;;;;16.92;8.57;;;;;;;22.49;56.78;93448.44;5060277;28;20029;-75
2023/08/02 06:17:51;;;;;;;12.57;7.38;;;;;;;22.54;56.50;93450.75;5060617;28;20425;-75
2023/08/02 06:20:16;;;;;;;15.45;7.80;;;;;;;22.69;56.37;93457.59;5060461;28;20044;-78
2023/08/02 06:22:42;;;;;;;27.30;8.32;;;;;;;22.90;55.75;93462.09;5060063;28;20029;-77
2023/08/02 06:25:08;;;;;;;13.70;8.10;;;;;;;23.01;55.07;93451.94;5059465;28;20044;-77
2023/08/02 06:27:34;;;;;;;18.83;8.85;;;;;;;23.20;54.63;93456.03;5061206;28;20145;-78
2023/08/02 06:29:59;;;;;;;14.50;8.50;;;;;;;23.34;54.62;93451.63;5062480;28;20017;-77
2023/08/02 06:32:25;;;;;;;17.05;8.30;;;;;;;23.51;54.29;93441.72;5062451;28;20215;-77
2023/08/02 06:34:50;;;;;;;14.25;8.90;;;;;;;23.67;54.21;93447.41;5062216;28;20319;-78
2023/08/02 06:37:15;;;;;;;21.80;10.02;;;;;;;23.73;54.18;93439.53;5062163;28;20017;-78
2023/08/02 06:39:41;;;;;;;16.95;9.27;;;;;;;23.81;54.05;93449.19;5062565;28;20017;-77
2023/08/02 06:42:06;;;;;;;20.45;9.63;;;;;;;24.01;52.76;93441.16;5062287;28;20056;-77
2023/08/02 06:44:32;;;;;;;14.60;10.02;;;;;;;24.14;51.98;93444.91;5062361;28;20084;-77
2023/08/02 06:46:57;;;;;;;18.85;10.30;;;;;;;24.09;51.81;93436.41;5062129;28;20028;-77
2023/08/02 06:49:23;;;;;;;16.80;9.35;;;;;;;24.18;52.07;93432.00;5062116;28;20068;-77
2023/08/02 06:51:48;;;;;;;17.70;9.60;;;;;;;24.41;52.26;93435.97;5062394;28;20036;-77
2023/08/02 06:54:14;;;;;;;12.52;8.35;;;;;;;24.58;50.37;93434.19;5062259;28;20387;-77
2023/08/02 06:56:39;;;;;;;26.77;9.13;;;;;;;24.61;50.66;93436.84;5062109;28;20091;-77
2023/08/02 06:59:05;;;;;;;20.15;8.85;;;;;;;24.68;49.86;93435.97;5062024;28;20211;-77
2023/08/02 07:01:30;;;;;;;15.60;8.40;;;;;;;24.66;50.04;93437.56;5062014;28;20067;-77
2023/08/02 07:03:56;;;;;;;9.63;7.68;;;;;;;24.59;49.50;93444.66;5062629;28;20044;-77
2023/08/02 07:06:21;;;;;;;18.45;8.00;;;;;;;24.63;49.81;93445.38;5065967;28;20087;-77
2023/08/02 07:08:47;;;;;;;24.00;8.15;;;;;;;24.58;50.26;93443.13;5065645;28;20027;-77
2023/08/02 07:11:13;;;;;;;17.38;7.88;;;;;;;24.63;49.76;93452.81;5066055;28;20021;-77
2023/08/02 07:13:44;;;;;;;11.20;7.57;;;;;;;24.57;50.52;93449.75;5066098;28;20036;-77
2023/08/02 07:16:09;;;;;;;9.35;7.65;;;;;;;24.56;50.28;93445.47;5065893;28;20031;-77
2023/08/02 07:18:35;;;;;;;14.98;8.00;;;;;;;24.54;49.76;93441.63;5065600;28;20021;-77
2023/08/02 07:21:10;;;;;;;13.77;9.70;;;;;;;24.45;49.72;93442.13;5065572;28;20016;-77
2023/08/02 07:23:36;;;;;;;14.13;8.63;;;;;;;24.46;49.65;93438.22;5065706;28;20092;-77
2023/08/02 07:26:02;;;;;;;13.15;8.93;;;;;;;24.49;50.00;93448.28;5065476;28;20046;-77
2023/08/02 07:28:28;;;;;;;13.38;7.45;;;;;;;24.49;50.08;93445.56;5064383;28;20025;-77
2023/08/02 07:31:04;;;;;;;19.65;8.75;;;;;;;24.50;49.99;93447.13;5065615;28;20228;-78
2023/08/02 07:33:29;;;;;;;16.75;9.18;;;;;;;24.48;50.26;93448.69;5065477;28;20029;-77
2023/08/02 07:35:54;;;;;;;19.95;8.27;;;;;;;24.50;50.11;93451.81;5065341;28;20048;-77
2023/08/02 07:38:20;;;;;;;14.77;8.00;;;;;;;24.56;50.37;93445.47;5065294;28;20039;-77
2023/08/02 07:40:46;;;;;;;21.92;9.23;;;;;;;24.68;50.29;93437.94;5065522;28;20191;-77
2023/08/02 07:43:11;;;;;;;11.27;8.45;;;;;;;24.85;49.90;93436.84;5065503;28;20045;-77
2023/08/02 07:45:37;;;;;;;17.20;8.15;;;;;;;25.01;50.12;93453.38;5065071;28;20314;-77
2023/08/02 07:48:02;;;;;;;13.70;7.35;;;;;;;25.10;50.06;93441.91;5064941;28;20331;-78
2023/08/02 07:50:28;;;;;;;20.02;7.78;;;;;;;25.22;48.69;93451.47;5065000;28;20036;-77
2023/08/02 07:52:53;;;;;;;15.05;7.55;;;;;;;25.21;49.14;93447.19;5064970;28;20200;-77
2023/08/02 07:55:19;;;;;;;14.80;7.75;;;;;;;25.21;50.08;93458.09;5064896;28;20029;-77
2023/08/02 07:57:44;;;;;;;12.95;6.88;;;;;;;25.27;49.04;93450.22;5064770;28;20335;-77
2023/08/02 08:00:10;;;;;;;15.30;8.80;;;;;;;25.37;49.18;93443.81;5065066;28;20059;-77
2023/08/02 08:02:36;;;;;;;16.48;8.13;;;;;;;25.48;48.86;93438.16;5064919;28;20021;-77
2023/08/02 08:05:01;;;;;;;27.58;8.45;;;;;;;25.60;48.81;93442.97;5064930;28;20024;-77
2023/08/02 08:07:26;;;;;;;15.85;8.57;;;;;;;25.68;48.51;93440.88;5064553;28;20254;-77
2023/08/02 08:09:52;;;;;;;21.50;9.23;;;;;;;25.85;48.26;93439.00;5064928;28;20037;-77
2023/08/02 08:12:18;;;;;;;18.20;9.10;;;;;;;25.94;48.14;93439.25;5064634;28;20045;-78
2023/08/02 08:14:43;;;;;;;9.88;5.85;;;;;;;26.02;45.23;93438.66;5064856;28;20111;-77
2023/08/02 08:17:08;;;;;;;7.85;5.60;;;;;;;26.02;45.62;93441.38;5063961;28;20029;-77
2023/08/02 08:19:34;;;;;;;11.90;5.95;;;;;;;26.06;45.42;93432.38;5064413;28;20088;-77
2023/08/02 08:21:59;;;;;;;11.77;6.18;;;;;;;26.22;46.11;93429.69;5064583;28;20288;-77
2023/08/02 08:24:25;;;;;;;9.57;5.78;;;;;;;26.32;43.96;93425.94;5064543;28;20189;-77
2023/08/02 08:26:50;;;;;;;11.00;6.28;;;;;;;26.51;44.20;93435.25;5064439;28;20033;-77
2023/08/02 08:29:17;;;;;;;13.00;5.75;;;;;;;26.63;43.36;93433.09;5064501;28;20021;-77
2023/08/02 08:31:42;;;;;;;10.25;5.80;;;;;;;26.74;45.27;93444.53;5064474;28;20201;-77
2023/08/02 08:34:08;;;;;;;6.75;4.32;;;;;;;26.78;40.32;93453.41;5064345;28;20084;-77
2023/08/02 08:36:33;;;;;;;14.60;4.93;;;;;;;26.82;41.93;93443.94;5064376;28;20036;-76
2023/08/02 08:38:59;;;;;;;14.35;4.47;;;;;;;26.84;40.80;93440.78;5064268;28;20031;-77
2023/08/02 08:41:24;;;;;;;7.68;4.60;;;;;;;26.83;40.20;93439.25;5064076;28;20059;-77
2023/08/02 08:43:50;;;;;;;13.82;5.10;;;;;;;26.91;41.51;93440.63;5064266;28;20024;-78
2023/08/02 08:46:17;;;;;;;8.38;5.03;;;;;;;26.94;41.72;93439.75;5064056;28;20063;-78
2023/08/02 08:48:43;;;;;;;14.80;5.75;;;;;;;26.94;41.19;93445.22;5064099;28;20053;-78
2023/08/02 08:51:10;;;;;;;21.17;5.40;;;;;;;26.91;40.67;93437.88;5064186;28;20040;-78
2023/08/02 08:53:41;;;;;;;13.55;5.43;;;;;;;26.96;41.28;93436.59;5063871;28;20052;-78
2023/08/02 08:56:06;;;;;;;13.37;5.57;;;;;;;27.05;41.90;93438.72;5063725;28;20028;-78
2023/08/02 08:58:33;;;;;;;11.15;5.28;;;;;;;27.13;40.73;93440.06;5063858;28;20021;-79
2023/08/02 09:00:59;;;;;;;12.93;4.97;;;;;;;27.19;39.93;93435.63;5063671;28;20029;-76
2023/08/02 09:03:25;;;;;;;10.10;4.75;;;;;;;27.25;37.99;93435.91;5063650;28;20025;-76
2023/08/02 09:05:51;;;;;;;7.25;3.92;;;;;;;27.33;38.86;93432.53;5063644;28;20054;-77
2023/08/02 09:08:16;;;;;;;11.73;4.50;;;;;;;27.41;38.22;93433.91;5063626;28;20033;-77
2023/08/02 09:10:42;;;;;;;22.85;4.20;;;;;;;27.51;37.57;93420.38;5063549;28;20367;-77
2023/08/02 09:13:27;;;;;;;14.15;4.35;;;;;;;27.60;36.45;93426.00;5063609;28;20116;-77
2023/08/02 09:16:06;;;;;;;9.65;3.35;;;;;;;27.53;36.55;93426.94;5063421;28;20328;-77
2023/08/02 09:18:47;;;;;;;7.90;3.45;;;;;;;27.58;35.41;93420.19;5063442;28;20130;-77
2023/08/02 09:21:19;;;;;;;6.60;3.90;;;;;;;27.60;36.47;93426.00;5063675;28;20021;-77
2023/08/02 09:23:47;;;;;;;11.55;4.22;;;;;;;27.68;36.36;93412.88;5063101;28;20024;-77
2023/08/02 09:26:14;;;;;;;6.72;3.70;;;;;;;27.73;36.03;93413.09;5063109;28;20215;-77
2023/08/02 09:28:40;;;;;;;7.47;3.50;;;;;;;27.85;35.15;93419.81;5063173;28;20029;-78
2023/08/02 09:31:17;;;;;;;7.10;3.60;;;;;;;27.92;34.49;93429.84;5063149;28;20067;-78
2023/08/02 09:33:51;;;;;;;8.10;4.07;;;;;;;28.04;34.90;93418.13;5063392;28;20243;-78
2023/08/02 09:36:22;;;;;;;8.70;3.80;;;;;;;28.20;33.68;93415.31;5063064;28;20031;-78
2023/08/02 09:39:10;;;;;;;6.32;3.40;;;;;;;28.36;33.88;93410.94;5063130;28;20311;-78
2023/08/02 09:41:36;;;;;;;8.88;3.63;;;;;;;28.41;33.80;93411.16;5063134;28;20033;-77
2023/08/02 09:44:01;;;;;;;6.00;3.83;;;;;;;28.49;33.34;93419.16;5062947;28;20048;-77
2023/08/02 09:46:34;;;;;;;8.15;4.00;;;;;;;28.55;34.43;93429.16;5063097;28;20212;-78
2023/08/02 09:49:01;;;;;;;8.02;3.67;;;;;;;28.61;33.44;93419.19;5062821;28;20080;-78
2023/08/02 09:51:40;;;;;;;9.32;3.97;;;;;;;28.60;32.37;93409.44;5062748;28;20025;-78
2023/08/02 09:54:06;;;;;;;7.35;3.28;;;;;;;28.67;33.40;93407.66;5062821;28;20045;-77
2023/08/02 09:56:35;;;;;;;5.25;3.65;;;;;;;28.57;33.16;93423.25;5062875;28;20059;-78
2023/08/02 09:59:04;;;;;;;11.80;3.83;;;;;;;28.47;33.57;93416.09;5062779;28;20267;-78
2023/08/02 10:01:31;;;;;;;7.28;3.60;;;;;;;28.37;33.65;93413.25;5062552;28;20056;-78
2023/08/02 10:04:05;;;;;;;12.27;3.30;;;;;;;28.39;34.04;93415.53;5062687;28;20028;-78
2023/08/02 10:06:55;;;;;;;11.60;3.45;;;;;;;28.46;32.49;93418.06;5062772;28;20051;-78
2023/08/02 10:09:25;;;;;;;7.13;3.33;;;;;;;28.60;32.64;93414.16;5062846;28;20196;-78
2023/08/02 10:11:56;;;;;;;8.57;3.70;;;;;;;28.51;32.60;93409.31;5062663;28;20323;-78
2023/08/02 10:14:23;;;;;;;9.05;3.92;;;;;;;28.50;33.16;93421.50;5062581;28;20042;-78
2023/08/02 10:16:50;;;;;;;7.47;3.30;;;;;;;28.49;33.99;93411.69;5061117;28;20025;-78
2023/08/02 10:19:17;;;;;;;8.55;4.50;;;;;;;28.45;34.39;93413.03;5062648;28;20033;-78
2023/08/02 10:21:43;;;;;;;11.30;4.10;;;;;;;28.50;34.93;93393.31;5062696;28;20311;-78
2023/08/02 10:24:13;;;;;;;6.95;4.22;;;;;;;28.53;34.17;93423.34;5062669;28;20025;-78
2023/08/02 10:26:39;;;;;;;14.18;4.15;;;;;;;28.45;33.55;93410.28;5062385;28;20028;-78
2023/08/02 10:29:06;;;;;;;14.93;3.88;;;;;;;28.46;34.39;93411.81;5062585;28;20077;-79
2023/08/02 10:31:32;;;;;;;12.63;3.65;;;;;;;28.49;33.21;93402.72;5062503;28;20032;-78
2023/08/02 10:33:57;;;;;;;8.57;3.63;;;;;;;28.54;33.50;93399.47;5062530;28;20032;-77
2023/08/02 10:36:23;;;;;;;20.65;3.80;;;;;;;28.58;33.65;93398.13;5062260;28;20031;-78
2023/08/02 10:38:53;;;;;;;9.73;3.47;;;;;;;28.61;33.90;93393.75;5063004;28;20041;-77
2023/08/02 10:41:27;;;;;;;21.08;3.92;;;;;;;28.71;33.62;93397.34;5066445;28;20013;-80
2023/08/02 10:44:00;;;;;;;7.00;3.50;;;;;;;28.71;32.45;93391.88;5066389;28;20048;-79
2023/08/02 10:46:29;;;;;;;8.88;3.72;;;;;;;28.77;34.06;93390.09;5066207;28;20088;-78
2023/08/02 10:49:15;;;;;;;4.97;3.35;;;;;;;28.84;33.30;93389.88;5066341;28;20111;-79
2023/08/02 10:51:42;;;;;;;7.22;3.13;;;;;;;28.85;32.73;93388.66;5066338;28;20028;-78
2023/08/02 10:54:15;;;;;;;8.18;3.85;;;;;;;29.01;33.17;93399.50;5066096;28;20032;-77
2023/08/02 10:56:53;;;;;;;12.45;3.83;;;;;;;29.07;33.24;93401.69;5066200;28;20095;-77
2023/08/02 10:59:24;;;;;;;13.13;4.22;;;;;;;29.15;34.07;93389.28;5066172;28;20029;-77
2023/08/02 11:02:10;;;;;;;10.73;4.22;;;;;;;29.14;33.52;93393.22;5066073;28;20024;-76
2023/08/02 11:04:37;;;;;;;14.35;4.13;;;;;;;29.13;32.72;93405.44;5065911;28;20024;-76
2023/08/02 11:07:18;;;;;;;24.17;4.45;;;;;;;29.19;32.91;93400.91;5065881;28;20053;-77
2023/08/02 11:09:45;;;;;;;9.75;4.10;;;;;;;29.22;32.73;93402.00;5065997;28;20021;-77
2023/08/02 11:12:11;;;;;;;9.93;3.92;;;;;;;29.37;32.67;93392.84;5065912;28;20100;-77
2023/08/02 11:14:41;;;;;;;9.50;4.00;;;;;;;29.45;32.29;93387.06;5065698;28;20315;-77
2023/08/02 11:17:06;;;;;;;5.20;3.45;;;;;;;29.54;32.26;93387.16;5065692;28;20037;-78
2023/08/02 11:19:32;;;;;;;8.80;4.53;;;;;;;29.49;32.70;93393.22;5064757;28;20021;-78
2023/08/02 11:22:01;;;;;;;5.60;3.78;;;;;;;29.35;32.82;93395.25;5065753;28;20086;-77
2023/08/02 11:24:26;;;;;;;6.88;3.25;;;;;;;29.32;32.14;93398.88;5065576;28;20134;-77
2023/08/02 11:26:53;;;;;;;11.40;4.05;;;;;;;29.22;33.16;93388.28;5065518;28;20029;-77